.
WxDataArchive / Data Records for 2012-07-13
2012-07-12 July 2012 2012-07-14

Data Records for Friday, 13 July 2012

Time	Temp	Chill	HIndex	Humid	Dewpt	 Wind 	HiWind	WindDir	Rain 	Barom 
-----	----	-----	------	-----	-----	------	------	-------	-----	----- 
00:00	75.4	75.4	77.6	59	60.1	0	2	112	0.00	30.049 
00:05	75.4	75.4	77.6	60	60.5	0	3	112	0.00	30.049 
00:10	75.3	75.3	77.5	60	60.4	0	1	112	0.00	30.049 
00:15	75.1	75.1	77.4	60	60.2	0	0	---	0.00	30.051 
00:20	74.9	74.9	74.9	61	60.5	0	0	---	0.00	30.051 
00:25	74.6	74.6	74.6	62	60.7	0	0	---	0.00	30.051 
00:30	74.2	74.2	74.2	62	60.3	0	0	---	0.00	30.052 
00:35	73.9	73.9	73.9	63	60.5	0	0	---	0.00	30.052 
00:40	73.5	73.5	73.5	64	60.6	0	0	---	0.00	30.052 
00:45	73.3	73.3	73.3	65	60.8	0	0	---	0.00	30.052 
00:50	73.0	73.0	73.0	65	60.5	0	0	---	0.00	30.052 
00:55	72.8	72.8	72.8	66	60.8	0	1	112	0.00	30.052 
01:00	72.7	72.7	72.7	67	61.1	0	0	---	0.00	30.054 
01:05	72.5	72.5	72.5	68	61.3	0	1	112	0.00	30.054 
01:10	72.5	72.5	72.5	69	61.7	0	1	112	0.00	30.054 
01:15	72.5	72.5	72.5	69	61.7	0	0	---	0.00	30.061 
01:20	72.7	72.7	72.7	69	61.9	0	0	---	0.00	30.061 
01:25	72.5	72.5	72.5	69	61.7	0	0	---	0.00	30.061 
01:30	72.3	72.3	72.3	69	61.5	0	0	---	0.00	30.052 
01:35	72.1	72.1	72.1	70	61.8	0	0	---	0.00	30.052 
01:40	72.0	72.0	72.0	70	61.7	0	0	---	0.00	30.052 
01:45	71.8	71.8	71.8	71	61.9	0	0	---	0.00	30.060 
01:50	71.6	71.6	71.6	72	62.1	0	1	112	0.00	30.060 
01:55	71.6	71.6	71.6	73	62.5	0	2	112	0.00	30.060 
02:00	71.6	71.6	71.6	72	62.1	0	1	112	0.00	30.062 
02:05	71.8	71.8	71.8	72	62.3	0	1	112	0.00	30.062 
02:10	71.8	71.8	71.8	71	61.9	0	0	---	0.00	30.062 
02:15	71.6	71.6	71.6	72	62.1	0	0	---	0.00	30.057 
02:20	71.5	71.5	71.5	72	62.0	0	0	---	0.00	30.057 
02:25	71.3	71.3	71.3	72	61.8	0	0	---	0.00	30.057 
02:30	71.1	71.1	71.1	73	62.0	0	0	---	0.00	30.061 
02:35	70.8	70.8	70.8	74	62.1	0	1	112	0.00	30.061 
02:40	70.6	70.6	70.6	74	61.9	0	0	---	0.00	30.061 
02:45	70.3	70.3	70.3	74	61.6	0	0	---	0.00	30.063 
02:50	70.3	70.3	70.3	75	62.0	0	0	---	0.00	30.063 
02:55	70.1	70.1	70.1	75	61.8	0	0	---	0.00	30.063 
03:00	69.9	69.9	69.9	75	61.6	0	0	---	0.00	30.066 
03:05	69.6	69.6	69.6	76	61.7	0	0	---	0.00	30.066 
03:10	69.6	69.6	69.6	76	61.7	0	0	---	0.00	30.066 
03:15	69.4	69.4	69.4	76	61.5	0	0	---	0.00	30.067 
03:20	69.3	69.3	69.3	76	61.4	0	0	---	0.00	30.067 
03:25	69.1	69.1	69.1	76	61.2	0	0	---	0.00	30.067 
03:30	69.1	69.1	69.1	76	61.2	0	0	---	0.00	30.066 
03:35	68.9	68.9	68.9	76	61.0	0	0	---	0.00	30.066 
03:40	68.9	68.9	68.9	75	60.6	0	0	---	0.00	30.066 
03:45	68.8	68.8	68.8	75	60.5	0	0	---	0.00	30.065 
03:50	68.8	68.8	68.8	75	60.5	0	0	---	0.00	30.065 
03:55	68.6	68.6	68.6	76	60.7	0	0	---	0.00	30.065 
04:00	68.6	68.6	68.6	76	60.7	0	0	---	0.00	30.065 
04:05	68.4	68.4	68.4	76	60.5	0	0	---	0.00	30.065 
04:10	68.3	68.3	68.3	77	60.8	0	0	---	0.00	30.065 
04:15	68.3	68.3	68.3	77	60.8	0	0	---	0.00	30.067 
04:20	68.1	68.1	68.1	77	60.6	0	0	---	0.00	30.067 
04:25	68.1	68.1	68.1	77	60.6	0	0	---	0.00	30.067 
04:30	67.9	67.9	67.9	77	60.4	0	0	---	0.00	30.066 
04:35	67.9	67.9	67.9	77	60.4	0	0	---	0.00	30.066 
04:40	67.8	67.8	67.8	78	60.7	0	0	---	0.00	30.066 
04:45	67.8	67.8	67.8	78	60.7	0	0	---	0.00	30.066 
04:50	67.8	67.8	67.8	78	60.7	0	0	---	0.00	30.066 
04:55	67.6	67.6	67.6	78	60.5	0	0	---	0.00	30.066 
05:00	67.6	67.6	67.6	78	60.5	0	0	---	0.00	30.068 
05:05	67.6	67.6	67.6	79	60.8	0	0	---	0.00	30.068 
05:10	67.6	67.6	67.6	79	60.8	0	0	---	0.00	30.068 
05:15	67.4	67.4	67.4	79	60.7	0	0	---	0.00	30.067 
05:20	67.4	67.4	67.4	79	60.7	0	0	---	0.00	30.067 
05:25	67.3	67.3	67.3	79	60.6	0	0	---	0.00	30.067 
05:30	67.1	67.1	67.1	80	60.7	0	0	---	0.00	30.067 
05:35	67.1	67.1	67.1	80	60.7	0	0	---	0.00	30.067 
05:40	66.9	66.9	66.9	80	60.5	0	0	---	0.00	30.067 
05:45	66.8	66.8	66.8	81	60.8	0	0	---	0.00	30.068 
05:50	66.6	66.6	66.6	81	60.6	0	0	---	0.00	30.068 
05:55	66.6	66.6	66.6	81	60.6	0	0	---	0.00	30.068 
06:00	66.4	66.4	66.4	81	60.4	0	0	---	0.00	30.070 
06:05	66.4	66.4	66.4	82	60.7	0	0	---	0.00	30.070 
06:10	66.4	66.4	66.4	82	60.7	0	0	---	0.00	30.070 
06:15	66.3	66.3	66.3	83	61.0	0	0	---	0.00	30.072 
06:20	66.3	66.3	66.3	82	60.6	0	0	---	0.00	30.072 
06:25	66.1	66.1	66.1	83	60.8	0	0	---	0.00	30.072 
06:30	66.1	66.1	66.1	83	60.8	0	0	---	0.00	30.077 
06:35	66.0	66.0	66.0	83	60.7	0	0	---	0.00	30.077 
06:40	66.0	66.0	66.0	83	60.7	0	0	---	0.00	30.077 
06:45	66.0	66.0	66.0	84	61.0	0	0	---	0.00	30.081 
06:50	66.0	66.0	66.0	84	61.0	0	0	---	0.00	30.081 
06:55	66.0	66.0	66.0	84	61.0	0	0	---	0.00	30.081 
07:00	66.0	66.0	66.0	84	61.0	0	0	---	0.00	30.080 
07:05	66.1	66.1	66.1	84	61.1	0	0	---	0.00	30.080 
07:10	66.4	66.4	66.4	84	61.4	0	0	---	0.00	30.080 
07:15	66.9	66.9	66.9	84	61.9	0	0	---	0.00	30.083 
07:20	67.4	67.4	67.4	83	62.0	0	0	---	0.00	30.083 
07:25	68.1	68.1	68.1	82	62.4	0	1	45	0.00	30.083 
07:30	68.8	68.8	68.8	81	62.7	0	0	---	0.00	30.083 
07:35	69.6	69.6	69.6	78	62.4	0	2	45	0.00	30.083 
07:40	70.4	70.4	70.4	77	62.8	0	2	45	0.00	30.083 
07:45	71.3	71.3	71.3	75	63.0	0	1	45	0.00	30.082 
07:50	72.1	72.1	72.1	73	63.0	0	1	45	0.00	30.082 
07:55	72.8	72.8	72.8	72	63.2	0	1	45	0.00	30.082 
08:00	73.5	73.5	73.5	71	63.5	0	1	45	0.00	30.080 
08:05	74.0	74.0	74.0	70	63.6	0	3	45	0.00	30.080 
08:10	74.0	74.0	74.0	70	63.6	0	2	45	0.00	30.080 
08:15	74.4	74.4	74.4	70	64.0	0	1	45	0.00	30.082 
08:20	74.9	74.9	74.9	69	64.0	0	1	45	0.00	30.082 
08:25	75.3	75.3	77.0	69	64.4	1	3	45	0.00	30.082 
08:30	75.8	75.8	77.6	68	64.5	0	3	45	0.00	30.080 
08:35	76.3	76.3	78.0	68	64.9	0	3	45	0.00	30.080 
08:40	76.8	76.8	78.6	67	65.0	0	2	45	0.00	30.080 
08:45	77.2	77.2	79.0	67	65.4	0	1	45	0.00	30.081 
08:50	77.9	77.9	79.8	66	65.6	0	2	45	0.00	30.081 
08:55	78.5	78.5	80.4	65	65.7	0	2	45	0.00	30.081 
09:00	78.8	78.8	80.8	65	66.0	0	1	45	0.00	30.079 
09:05	79.2	79.2	81.2	64	65.9	0	2	45	0.00	30.079 
09:10	79.8	79.8	81.8	62	65.6	1	2	45	0.00	30.079 
09:15	80.3	80.3	82.4	62	66.1	0	2	45	0.00	30.081 
09:20	80.7	80.7	82.9	62	66.4	0	1	45	0.00	30.081 
09:25	81.1	81.1	83.2	60	65.9	0	2	45	0.00	30.081 
09:30	81.6	81.6	83.7	59	65.9	0	2	45	0.00	30.082 
09:35	81.6	81.6	83.7	59	65.9	1	3	45	0.00	30.082 
09:40	81.8	81.8	83.8	58	65.6	0	2	45	0.00	30.082 
09:45	81.8	81.8	83.8	58	65.6	0	2	45	0.00	30.083 
09:50	82.4	82.4	84.4	57	65.6	0	3	45	0.00	30.083 
09:55	83.2	83.2	85.3	56	65.8	0	1	45	0.00	30.083 
10:00	83.4	83.4	85.6	56	66.0	0	1	45	0.00	30.084 
10:05	83.8	83.8	86.0	55	65.9	0	3	45	0.00	30.084 
10:10	84.1	84.1	86.2	54	65.6	1	4	45	0.00	30.084 
10:15	84.1	84.1	86.2	54	65.6	2	3	45	0.00	30.085 
10:20	83.6	83.6	85.9	56	66.2	1	4	45	0.00	30.085 
10:25	83.4	83.4	85.6	56	66.0	1	4	68	0.00	30.085 
10:30	83.6	83.6	85.7	55	65.7	0	3	68	0.00	30.082 
10:35	84.0	84.0	86.0	54	65.5	0	3	248	0.00	30.082 
10:40	84.5	84.5	86.5	53	65.5	1	4	90	0.00	30.082 
10:45	84.9	84.9	87.1	53	65.8	1	2	90	0.00	30.081 
10:50	85.1	85.1	87.4	53	66.0	2	4	90	0.00	30.081 
10:55	84.9	84.9	87.1	53	65.8	2	5	68	0.00	30.081 
11:00	84.9	84.9	87.1	53	65.8	1	5	68	0.00	30.082 
11:05	85.5	85.5	87.4	51	65.3	0	1	68	0.00	30.082 
11:10	86.1	86.1	87.8	49	64.7	1	4	68	0.00	30.082 
11:15	86.3	86.3	88.3	50	65.4	1	2	90	0.00	30.085 
11:20	86.3	86.3	87.5	47	63.7	2	6	90	0.00	30.085 
11:25	85.3	85.3	87.1	51	65.1	2	4	90	0.00	30.085 
11:30	85.3	85.3	86.9	50	64.5	2	4	90	0.00	30.084 
11:35	85.3	85.3	86.1	47	62.8	2	4	90	0.00	30.084 
11:40	85.5	85.5	87.2	50	64.7	2	6	90	0.00	30.084 
11:45	86.1	86.1	87.8	49	64.7	1	3	90	0.00	30.081 
11:50	86.7	86.7	88.3	48	64.6	2	5	90	0.00	30.081 
11:55	87.2	87.2	88.8	47	64.5	1	3	90	0.00	30.081 
12:00	87.4	87.4	88.8	46	64.0	2	4	90	0.00	30.086 
12:05	87.8	87.8	89.1	45	63.8	1	4	90	0.00	30.086 
12:10	88.0	88.0	89.4	45	64.0	1	4	90	0.00	30.086 
12:15	88.2	88.2	89.0	43	62.8	2	6	90	0.00	30.091 
12:20	88.2	88.2	88.7	42	62.2	3	9	68	0.00	30.091 
12:25	87.4	87.4	88.2	44	62.8	3	7	90	0.00	30.091 
12:30	87.0	87.0	87.4	43	61.8	3	9	90	0.00	30.094 
12:35	87.6	87.6	88.2	43	62.3	2	5	68	0.00	30.094 
12:40	87.8	87.8	88.5	43	62.5	3	9	90	0.00	30.094 
12:45	88.0	88.0	88.5	42	62.0	2	4	112	0.00	30.092 
12:50	88.2	88.2	88.7	42	62.2	3	6	90	0.00	30.092 
12:55	88.4	88.4	89.0	42	62.3	2	5	135	0.00	30.092 
13:00	88.0	88.0	88.5	42	62.0	2	6	68	0.00	30.086 
13:05	88.0	88.0	88.7	43	62.7	2	6	68	0.00	30.086 
13:10	88.4	88.4	89.3	43	63.0	2	5	90	0.00	30.086 
13:15	88.6	88.6	89.6	43	63.2	3	7	90	0.00	30.081 
13:20	88.4	88.4	89.0	42	62.3	3	10	68	0.00	30.081 
13:25	88.0	88.0	88.2	41	61.3	3	10	90	0.00	30.081 
13:30	88.4	88.4	88.7	41	61.7	2	5	90	0.00	30.077 
13:35	88.6	88.6	89.0	41	61.8	2	4	112	0.00	30.077 
13:40	88.8	88.8	88.7	39	60.6	2	11	90	0.00	30.077 
13:45	89.3	89.3	89.4	39	61.0	2	5	68	0.00	30.079 
13:50	89.3	89.3	89.1	38	60.3	2	5	68	0.00	30.079 
13:55	89.7	89.7	89.9	39	61.4	3	7	68	0.00	30.079 
14:00	89.5	89.5	90.0	40	61.9	1	4	90	0.00	30.075 
14:05	89.3	89.3	89.4	39	61.0	2	4	90	0.00	30.075 
14:10	89.3	89.3	89.4	39	61.0	2	7	112	0.00	30.075 
14:15	89.7	89.7	89.6	38	60.7	3	9	90	0.00	30.075 
14:20	89.5	89.5	89.6	39	61.2	2	6	90	0.00	30.075 
14:25	88.4	88.4	89.0	42	62.3	2	4	90	0.00	30.075 
14:30	88.8	88.8	88.7	39	60.6	2	4	90	0.00	30.071 
14:35	89.5	89.5	90.0	40	61.9	2	5	90	0.00	30.071 
14:40	89.0	89.0	89.3	40	61.5	2	6	90	0.00	30.071 
14:45	89.5	89.5	89.3	38	60.5	2	6	90	0.00	30.066 
14:50	90.1	90.1	89.9	37	60.3	2	7	90	0.00	30.066 
14:55	90.3	90.3	90.1	37	60.4	3	6	90	0.00	30.066 
15:00	90.1	90.1	90.2	38	61.0	3	6	90	0.00	30.062 
15:05	90.5	90.5	90.7	38	61.4	1	3	90	0.00	30.062 
15:10	90.7	90.7	90.4	36	60.0	2	5	90	0.00	30.062 
15:15	90.3	90.3	90.8	39	61.9	2	4	135	0.00	30.063 
15:20	90.3	90.3	90.5	38	61.2	1	3	158	0.00	30.063 
15:25	91.0	91.0	91.8	39	62.6	1	3	112	0.00	30.063 
15:30	91.4	91.4	91.4	36	60.6	1	3	90	0.00	30.050 
15:35	91.6	91.6	92.0	37	61.6	2	4	112	0.00	30.050 
15:40	91.8	91.8	91.9	36	61.0	2	5	90	0.00	30.050 
15:45	92.1	92.1	92.8	37	62.0	2	5	112	0.00	30.048 
15:50	92.3	92.3	93.1	37	62.2	3	7	112	0.00	30.048 
15:55	90.7	90.7	91.0	38	61.6	3	10	90	0.00	30.048 
16:00	90.1	90.1	90.2	38	61.0	1	4	90	0.00	30.043 
16:05	90.7	90.7	91.0	38	61.6	2	5	90	0.00	30.043 
16:10	91.2	91.2	92.1	39	62.7	2	6	90	0.00	30.043 
16:15	91.4	91.4	91.4	36	60.6	2	4	112	0.00	30.038 
16:20	91.6	91.6	92.0	37	61.6	2	6	90	0.00	30.038 
16:25	91.4	91.4	92.1	38	62.2	2	5	68	0.00	30.038 
16:30	91.6	91.6	92.0	37	61.6	2	6	90	0.00	30.034 
16:35	91.8	91.8	91.9	36	61.0	2	5	45	0.00	30.034 
16:40	91.8	91.8	92.3	37	61.8	2	5	90	0.00	30.034 
16:45	91.4	91.4	91.7	37	61.4	3	7	90	0.00	30.033 
16:50	90.1	90.1	90.5	39	61.8	2	7	90	0.00	30.033 
16:55	89.0	89.0	89.3	40	61.5	2	6	90	0.00	30.033 
17:00	88.0	88.0	88.5	42	62.0	2	5	90	0.00	30.031 
17:05	88.0	88.0	88.5	42	62.0	1	5	90	0.00	30.031 
17:10	88.8	88.8	89.0	40	61.3	2	5	68	0.00	30.031 
17:15	89.5	89.5	89.6	39	61.2	2	4	112	0.00	30.021 
17:20	89.3	89.3	89.7	40	61.8	2	6	112	0.00	30.021 
17:25	88.8	88.8	89.0	40	61.3	1	4	112	0.00	30.021 
17:30	89.3	89.3	89.1	38	60.3	2	4	112	0.00	30.019 
17:35	89.7	89.7	89.9	39	61.4	2	4	112	0.00	30.019 
17:40	89.7	89.7	89.9	39	61.4	3	9	90	0.00	30.019 
17:45	89.3	89.3	89.4	39	61.0	2	6	90	0.00	30.019 
17:50	89.0	89.0	89.3	40	61.5	2	5	90	0.00	30.019 
17:55	88.6	88.6	88.7	40	61.1	2	6	112	0.00	30.019 
18:00	88.6	88.6	88.2	38	59.7	2	7	112	0.00	30.011 
18:05	88.8	88.8	88.4	38	59.9	2	7	45	0.00	30.011 
18:10	88.8	88.8	88.4	38	59.9	3	6	90	0.00	30.011 
18:15	88.6	88.6	88.7	40	61.1	3	6	90	0.00	30.009 
18:20	88.4	88.4	87.9	38	59.5	4	11	68	0.00	30.009 
18:25	88.4	88.4	87.9	38	59.5	2	6	112	0.00	30.009 
18:30	88.4	88.4	87.6	37	58.8	2	5	112	0.00	30.006 
18:35	88.2	88.2	87.2	36	57.8	2	5	112	0.00	30.006 
18:40	88.0	88.0	87.1	37	58.4	1	6	90	0.00	30.006 
18:45	87.8	87.8	86.9	37	58.2	1	5	90	0.00	30.003 
18:50	87.8	87.8	86.7	36	57.5	2	4	90	0.00	30.003 
18:55	87.8	87.8	86.7	36	57.5	2	4	135	0.00	30.003 
19:00	87.6	87.6	86.4	36	57.3	4	11	90	0.00	30.005 
19:05	87.4	87.4	86.4	37	57.9	2	4	90	0.00	30.005 
19:10	87.4	87.4	86.4	37	57.9	2	5	90	0.00	30.005 
19:15	87.4	87.4	86.4	37	57.9	2	6	90	0.00	30.000 
19:20	87.4	87.4	86.4	37	57.9	2	5	68	0.00	30.000 
19:25	87.2	87.2	86.2	37	57.7	2	6	112	0.00	30.000 
19:30	87.0	87.0	86.2	38	58.3	1	4	90	0.00	30.003 
19:35	87.0	87.0	86.2	38	58.3	2	4	112	0.00	30.003 
19:40	86.7	86.7	85.8	38	58.0	2	4	112	0.00	30.003 
19:45	86.7	86.7	86.0	39	58.7	1	5	112	0.00	30.005 
19:50	86.5	86.5	85.8	39	58.6	1	4	90	0.00	30.005 
19:55	86.3	86.3	85.6	39	58.4	2	5	90	0.00	30.005 
20:00	86.1	86.1	85.4	39	58.2	1	4	90	0.00	30.012 
20:05	85.9	85.9	85.1	39	58.0	1	5	112	0.00	30.012 
20:10	85.7	85.7	84.9	39	57.9	1	5	112	0.00	30.012 
20:15	85.5	85.5	84.7	39	57.7	1	6	68	0.00	30.013 
20:20	85.3	85.3	84.7	40	58.2	1	2	68	0.00	30.013 
20:25	85.1	85.1	84.4	40	58.0	0	2	68	0.00	30.013 
20:30	84.9	84.9	84.4	41	58.5	0	2	68	0.00	30.019 
20:35	84.7	84.7	84.2	41	58.4	1	4	68	0.00	30.019 
20:40	84.3	84.3	83.8	41	58.0	1	2	68	0.00	30.019 
20:45	84.1	84.1	83.7	42	58.5	0	2	68	0.00	30.021 
20:50	84.0	84.0	83.6	42	58.4	0	2	68	0.00	30.021 
20:55	83.6	83.6	83.4	43	58.7	1	2	68	0.00	30.021 
21:00	83.4	83.4	83.2	43	58.5	0	2	68	0.00	30.024 
21:05	83.0	83.0	82.9	44	58.8	0	3	68	0.00	30.024 
21:10	82.8	82.8	82.9	45	59.3	0	1	68	0.00	30.024 
21:15	82.4	82.4	82.5	45	58.9	0	1	68	0.00	30.020 
21:20	82.2	82.2	82.4	46	59.3	0	2	68	0.00	30.020 
21:25	81.8	81.8	82.0	46	59.0	0	1	68	0.00	30.020 
21:30	81.6	81.6	81.9	47	59.4	0	1	68	0.00	30.026 
21:35	81.4	81.4	81.9	48	59.8	0	1	68	0.00	30.026 
21:40	81.1	81.1	81.6	48	59.5	0	1	68	0.00	30.026 
21:45	80.9	80.9	81.5	49	59.9	0	2	68	0.00	30.030 
21:50	80.7	80.7	81.3	49	59.7	0	2	68	0.00	30.030 
21:55	80.3	80.3	81.1	50	59.9	0	1	68	0.00	30.030 
22:00	80.1	80.1	80.9	50	59.8	0	1	68	0.00	30.032 
22:05	79.9	79.9	80.8	51	60.1	0	1	68	0.00	30.032 
22:10	79.6	79.6	80.5	51	59.9	0	1	68	0.00	30.032 
22:15	79.4	79.4	80.5	52	60.2	0	0	---	0.00	30.032 
22:20	79.2	79.2	80.3	52	60.0	0	1	68	0.00	30.032 
22:25	79.0	79.0	80.2	53	60.4	0	0	---	0.00	30.032 
22:30	78.6	78.6	79.9	54	60.5	0	0	---	0.00	30.036 
22:35	78.6	78.6	79.9	54	60.5	0	0	---	0.00	30.036 
22:40	78.5	78.5	79.8	54	60.4	0	1	68	0.00	30.036 
22:45	78.3	78.3	79.7	55	60.8	0	1	68	0.00	30.038 
22:50	78.1	78.1	79.5	55	60.6	0	0	---	0.00	30.038 
22:55	77.9	77.9	79.4	56	60.9	0	1	68	0.00	30.038 
23:00	77.7	77.7	79.3	57	61.2	0	1	68	0.00	30.041 
23:05	77.6	77.6	79.2	57	61.1	0	1	68	0.00	30.041 
23:10	77.4	77.4	79.1	58	61.4	0	1	68	0.00	30.041 
23:15	77.2	77.2	78.9	58	61.3	0	0	---	0.00	30.039 
23:20	77.0	77.0	78.8	58	61.1	0	0	---	0.00	30.039 
23:25	76.8	76.8	78.6	59	61.4	0	0	---	0.00	30.039 
23:30	76.7	76.7	78.5	60	61.7	0	0	---	0.00	30.044 
23:35	76.3	76.3	78.2	60	61.4	0	0	---	0.00	30.044 
23:40	76.1	76.1	78.1	61	61.7	0	0	---	0.00	30.044 
23:45	76.0	76.0	78.0	62	62.0	0	1	68	0.00	30.045 
23:50	75.8	75.8	77.8	62	61.8	0	1	68	0.00	30.045 
23:55	75.6	75.6	77.7	62	61.6	0	0	---	0.00	30.045 

CoCoRaHS
IN-AL-39
A2 Web Hosting
Creative Commons License
GoDaddy
search engine by freefind advanced

loaded 2018-11-17 05:36:50 • last modified 2010-11-18 10:43:29
Privacy PolicyDisclaimer
• wx.awcolley.com is powered by PmWiki v.2002016 •
• all content (unless otherwise noted) © 2018 A W Colley